Flight Track Log - Related Links

Times and Time Zones

All times are in EDT time to prevent confusion due to time zone crossing. See the WJA536 flight status page for this flight to view local times or setup timezone preferences in your user account.

Time Position Orientation Groundspeed Altitude Reporting Facility
EDT Latitude Longitude Course Direction KTS MPH feet Rate Location/Type
Thu 08:44:24 PM 51.1000 -114.0833 95° East 160 184 4,900  Level Edmonton Center
Thu 08:45:24 PM 51.1333 -114.1500 309° West 220 253 7,100 2,550 Climbing Edmonton Center
Thu 08:46:24 PM 51.1167 -114.2500 255° West 270 311 10,000 2,800 Climbing Edmonton Center
Thu 08:47:24 PM 51.0500 -114.2167 163° South 310 357 12,700 3,000 Climbing Edmonton Center
Thu 08:48:24 PM 51.0500 -114.0833 90° East 310 357 16,000 2,950 Climbing Edmonton Center
Thu 08:49:24 PM 51.0500 -113.9500 90° East 330 380 18,600 1,750 Climbing Edmonton Center
Thu 08:50:00 PM 51.0644 -112.6441 95° East  Level FlightAware Approximate
Thu 08:50:24 PM 51.0333 -113.7833 99° East 380 437 19,500  Level Edmonton Center
Thu 08:51:24 PM 51.0333 -113.6000 90° East 410 472 21,400 2,100 Climbing Edmonton Center
Thu 08:52:24 PM 51.0500 -113.4000 82° East 420 483 23,700 2,050 Climbing Edmonton Center
Thu 08:53:24 PM 51.0500 -113.2167 90° East 430 495 25,500 1,750 Climbing Edmonton Center
Thu 08:54:24 PM 51.0500 -113.0000 90° East 440 506 27,200 1,700 Climbing Edmonton Center
Thu 08:55:24 PM 51.0500 -112.8167 90° East 450 518 28,900 1,600 Climbing Edmonton Center
Thu 08:56:24 PM 51.0500 -112.6000 90° East 460 529 30,400 1,550 Climbing Edmonton Center
Thu 08:57:24 PM 51.0167 -112.4000 105° East 470 541 32,000 1,650 Climbing Edmonton Center
Thu 08:58:24 PM 51.0167 -112.1833 90° East 460 529 33,700 1,500 Climbing Edmonton Center
Thu 08:59:24 PM 51.0167 -112.0000 90° East 460 529 35,000 1,250 Climbing Edmonton Center
Thu 09:00:24 PM 51.0000 -111.7833 97° East 460 529 36,200 1,000 Climbing Edmonton Center
Thu 09:01:24 PM 50.9833 -111.5833 97° East 460 529 37,000 400 Climbing Edmonton Center
Thu 09:02:24 PM 50.9833 -111.4000 90° East 460 529 37,000  Level Edmonton Center
Thu 09:03:24 PM 50.9667 -111.1833 97° East 460 529 37,000  Level Edmonton Center
Thu 09:04:24 PM 50.9500 -110.9667 97° East 460 529 37,000  Level Edmonton Center
Thu 09:05:24 PM 50.9500 -110.7500 90° East 460 529 37,000  Level Edmonton Center
Thu 09:06:24 PM 50.9333 -110.5667 98° East 460 529 37,000  Level Edmonton Center
Thu 09:07:24 PM 50.9167 -110.3500 97° East 460 529 37,000  Level Edmonton Center
Thu 09:08:13 PM 50.9167 -110.2000 90° East 470 541 37,000  Level Winnipeg Center
Thu 09:14:02 PM 50.8290 -109.0280 90° East 481 554 37,000  Level FlightAware ADS-B
Thu 09:14:42 PM 50.8140 -108.8850 99° East 481 554 37,000  Level FlightAware ADS-B
Thu 09:15:22 PM 50.7990 -108.7410 99° East 480 552 37,000  Level FlightAware ADS-B
Thu 09:16:02 PM 50.7830 -108.5980 100° East 481 554 37,000  Level FlightAware ADS-B
Thu 09:16:52 PM 50.7650 -108.4350 100° East 482 555 37,000  Level FlightAware ADS-B
Thu 09:17:47 PM 50.7480 -108.2700 99° East 482 555 37,000  Level FlightAware ADS-B
Thu 09:18:37 PM 50.7240 -108.0630 100° East 483 556 37,000  Level FlightAware ADS-B
Thu 09:19:22 PM 50.7060 -107.9050 100° East 483 556 37,000  Level FlightAware ADS-B
Thu 09:20:17 PM 50.6840 -107.7170 100° East 482 555 37,000  Level FlightAware ADS-B
Thu 09:21:02 PM 50.6650 -107.5600 101° East 481 554 37,000  Level FlightAware ADS-B
Thu 09:21:37 PM 50.6510 -107.4360 100° East 480 552 37,000  Level FlightAware ADS-B
Thu 09:22:22 PM 50.6320 -107.2760 101° East 478 550 37,000  Level FlightAware ADS-B
Thu 09:23:02 PM 50.6150 -107.1370 101° East 477 549 37,000  Level FlightAware ADS-B
Thu 09:23:42 PM 50.5990 -107.0100 101° East 477 549 37,000  Level FlightAware ADS-B
Thu 09:24:42 PM 50.5740 -106.8110 101° East 476 548 37,000  Level FlightAware ADS-B
Thu 09:25:27 PM 50.5530 -106.6440 101° East 476 548 37,000  Level FlightAware ADS-B
Thu 09:26:02 PM 50.5390 -106.5320 101° East 477 549 37,000  Level FlightAware ADS-B
Thu 09:26:47 PM 50.5200 -106.3870 102° East 478 550 37,000  Level FlightAware ADS-B
Thu 09:27:27 PM 50.5010 -106.2430 102° East 479 551 37,000  Level FlightAware ADS-B
Thu 09:28:12 PM 50.4810 -106.0870 101° East 480 552 37,000  Level FlightAware ADS-B
Thu 09:28:47 PM 50.4660 -105.9750 102° East 481 554 37,000  Level FlightAware ADS-B
Thu 09:29:37 PM 50.4420 -105.7930 102° East 481 554 37,000  Level FlightAware ADS-B
Thu 09:30:22 PM 50.4230 -105.6520 102° East 480 552 37,000  Level FlightAware ADS-B
Thu 09:31:02 PM 50.4030 -105.5100 102° East 480 552 37,000  Level FlightAware ADS-B
Thu 09:31:42 PM 50.3860 -105.3860 102° East 480 552 37,000  Level FlightAware ADS-B
Thu 09:32:22 PM 50.3660 -105.2380 102° East 480 552 37,000  Level FlightAware ADS-B
Thu 09:33:07 PM 50.3440 -105.0870 103° East 479 551 37,000  Level FlightAware ADS-B
Thu 09:33:47 PM 50.3260 -104.9590 102° East 478 550 37,000  Level FlightAware ADS-B
Thu 09:34:27 PM 50.3060 -104.8180 102° East 478 550 37,000  Level FlightAware ADS-B
Thu 09:35:12 PM 50.2840 -104.6710 103° East 477 549 37,000  Level FlightAware ADS-B
Thu 09:35:52 PM 50.2650 -104.5380 103° East 477 549 37,000  Level FlightAware ADS-B
Thu 09:36:32 PM 50.2450 -104.4020 103° East 477 549 37,000  Level FlightAware ADS-B
Thu 09:37:17 PM 50.2220 -104.2490 103° East 476 548 37,000  Level FlightAware ADS-B
Thu 09:38:02 PM 50.1990 -104.0930 103° East 475 547 37,000  Level FlightAware ADS-B
Thu 09:38:37 PM 50.1820 -103.9840 104° East 475 547 37,000  Level FlightAware ADS-B
Thu 09:39:27 PM 50.1580 -103.8220 103° East 476 548 37,000  Level FlightAware ADS-B
Thu 09:40:07 PM 50.1360 -103.6810 104° East 476 548 37,000  Level FlightAware ADS-B
Thu 09:40:47 PM 50.1160 -103.5540 104° East 475 547 37,000  Level FlightAware ADS-B
Thu 09:41:27 PM 50.0960 -103.4230 103° East 475 547 37,000  Level FlightAware ADS-B
Thu 09:42:07 PM 50.0730 -103.2800 104° East 475 547 37,000  Level FlightAware ADS-B
Thu 09:42:57 PM 50.0470 -103.1150 104° East 475 547 37,000  Level FlightAware ADS-B
Thu 09:43:42 PM 50.0230 -102.9680 104° East 475 547 37,000  Level FlightAware ADS-B
Thu 09:44:22 PM 50.0020 -102.8400 104° East 475 547 37,000  Level FlightAware ADS-B
Thu 09:44:57 PM 49.9820 -102.7170 104° East 475 547 37,000  Level FlightAware ADS-B
Thu 09:45:13 PM 49.9500 -102.6667 104° East 470 541 37,000  Level Winnipeg Center
Thu 09:46:13 PM 49.9167 -102.4500 103° East 470 541 37,000  Level Winnipeg Center
Thu 09:47:13 PM 49.8833 -102.2667 106° East 470 541 37,000  Level Winnipeg Center
Thu 09:48:13 PM 49.8500 -102.0500 103° East 470 541 37,000  Level Winnipeg Center
Thu 09:49:13 PM 49.8167 -101.8667 106° East 470 541 37,000  Level Winnipeg Center
Thu 09:50:13 PM 49.7833 -101.6500 103° East 470 541 37,000  Level Winnipeg Center
Thu 09:51:13 PM 49.7500 -101.4667 106° East 470 541 37,000  Level Winnipeg Center
Thu 09:52:13 PM 49.7167 -101.2833 106° East 470 541 37,000  Level Winnipeg Center
Thu 09:53:13 PM 49.6667 -101.0833 111° Southeast 470 541 37,000  Level Winnipeg Center
Thu 09:54:13 PM 49.6500 -100.9000 98° East 470 541 37,000  Level Winnipeg Center
Thu 09:55:13 PM 49.6000 -100.6833 110° East 470 541 37,000  Level Winnipeg Center
Thu 09:56:13 PM 49.5667 -100.5000 106° East 470 541 37,000  Level Winnipeg Center
Thu 09:57:13 PM 49.5333 -100.2833 103° East 470 541 37,000  Level Winnipeg Center
Thu 09:58:13 PM 49.5000 -100.1167 107° East 470 541 37,000  Level Winnipeg Center
Thu 09:59:13 PM 49.4500 -99.9333 113° Southeast 470 541 37,000  Level Winnipeg Center
Thu 10:00:13 PM 49.4167 -99.7500 106° East 470 541 37,000  Level Winnipeg Center
Thu 10:01:13 PM 49.3500 -99.5667 119° Southeast 470 541 37,000  Level Winnipeg Center
Thu 10:02:13 PM 49.3000 -99.3833 113° Southeast 470 541 37,000  Level Winnipeg Center
Thu 10:03:13 PM 49.2333 -99.2000 119° Southeast 460 529 37,000  Level Winnipeg Center
Thu 10:04:13 PM 49.2000 -99.0167 105° East 470 541 37,000  Level Winnipeg Center
Thu 10:05:13 PM 49.1333 -98.8333 119° Southeast 470 541 37,000  Level Winnipeg Center
Thu 10:06:13 PM 49.0833 -98.6833 117° Southeast 470 541 37,000  Level Winnipeg Center
Thu 10:07:13 PM 49.0167 -98.4667 115° Southeast 470 541 37,000  Level Winnipeg Center
Thu 10:08:13 PM 48.9667 -98.2833 113° Southeast 480 552 37,000  Level Winnipeg Center
Thu 10:09:13 PM 48.9000 -98.1167 121° Southeast 480 552 37,000  Level Winnipeg Center
Thu 10:10:13 PM 48.8333 -97.9333 119° Southeast 480 552 37,000  Level Winnipeg Center
Thu 10:10:35 PM 48.8403 -97.8708 80° East 481 554 37,000  Level Minneapolis Center
Thu 10:11:36 PM 48.7817 -97.6911 116° Southeast 478 550 37,000 390 Level Minneapolis Center
Thu 10:12:38 PM 48.7233 -97.5078 116° Southeast 481 554 37,800 780 Climbing Minneapolis Center
Thu 10:13:39 PM 48.6633 -97.3250 116° Southeast 483 556 38,600 590 Climbing Minneapolis Center
Thu 10:14:40 PM 48.6019 -97.1408 117° Southeast 488 562 39,000 178 Climbing Minneapolis Center
Thu 10:15:54 PM 48.5414 -96.9578 116° Southeast 488 562 39,000  Level Minneapolis Center
Thu 10:16:55 PM 48.4675 -96.7403 117° Southeast 485 558 39,000  Level Minneapolis Center
Thu 10:17:57 PM 48.4072 -96.5592 117° Southeast 484 557 39,000  Level Minneapolis Center
Thu 10:18:58 PM 48.3342 -96.3469 117° Southeast 480 552 39,000  Level Minneapolis Center
Thu 10:20:00 PM 48.2736 -96.1681 117° Southeast 480 552 39,000  Level Minneapolis Center
Thu 10:21:01 PM 48.2108 -95.9897 118° Southeast 481 554 39,000  Level Minneapolis Center
Thu 10:22:03 PM 48.1503 -95.8172 118° Southeast 477 549 39,000  Level Minneapolis Center
Thu 10:23:05 PM 48.0914 -95.6419 117° Southeast 475 547 39,000  Level Minneapolis Center
Thu 10:24:07 PM 48.0281 -95.4658 118° Southeast 477 549 39,000  Level Minneapolis Center
Thu 10:25:08 PM 47.9647 -95.2900 118° Southeast 481 554 39,000  Level Minneapolis Center
Thu 10:26:22 PM 47.8900 -95.0800 118° Southeast 480 552 39,000  Level Minneapolis Center
Thu 10:27:24 PM 47.8153 -94.8736 118° Southeast 476 548 39,000  Level Minneapolis Center
Thu 10:28:25 PM 47.7531 -94.7014 118° Southeast 475 547 39,000  Level Minneapolis Center
Thu 10:29:39 PM 47.6792 -94.4975 118° Southeast 471 542 39,000  Level Minneapolis Center
Thu 10:30:41 PM 47.6175 -94.3286 118° Southeast 469 540 39,000  Level Minneapolis Center
Thu 10:31:42 PM 47.5556 -94.1583 118° Southeast 471 542 39,000  Level Minneapolis Center
Thu 10:32:44 PM 47.4933 -93.9889 118° Southeast 471 542 39,000  Level Minneapolis Center
Thu 10:33:46 PM 47.4178 -93.7869 119° Southeast 472 543 39,000  Level Minneapolis Center
Thu 10:34:48 PM 47.3542 -93.6203 119° Southeast 471 542 39,000  Level Minneapolis Center
Thu 10:35:49 PM 47.2906 -93.4556 120° Southeast 470 541 39,000  Level Minneapolis Center
Thu 10:36:51 PM 47.2278 -93.2892 119° Southeast 475 547 39,000  Level Minneapolis Center
Thu 10:37:52 PM 47.1650 -93.1256 119° Southeast 472 543 39,000  Level Minneapolis Center
Thu 10:38:54 PM 47.0867 -92.9244 120° Southeast 477 549 39,000  Level Minneapolis Center
Thu 10:39:55 PM 47.0222 -92.7578 120° Southeast 475 547 39,000  Level Minneapolis Center
Thu 10:40:57 PM 46.9561 -92.5914 120° Southeast 475 547 39,000  Level Minneapolis Center
Thu 10:41:58 PM 46.8908 -92.4242 120° Southeast 476 548 39,000  Level Minneapolis Center
Thu 10:43:00 PM 46.8256 -92.2600 120° Southeast 472 543 39,000  Level Minneapolis Center
Thu 10:44:01 PM 46.7656 -92.0897 117° Southeast 472 543 39,000  Level Minneapolis Center
Thu 10:45:03 PM 46.7119 -91.9175 114° Southeast 471 542 39,000  Level Minneapolis Center
Thu 10:46:04 PM 46.6547 -91.7442 116° Southeast 474 545 39,000  Level Minneapolis Center
Thu 10:47:05 PM 46.5936 -91.5489 114° Southeast 475 547 39,000  Level Minneapolis Center
Thu 10:48:07 PM 46.5375 -91.3742 115° Southeast 476 548 39,000  Level Minneapolis Center
Thu 10:49:08 PM 46.4819 -91.2003 115° Southeast 476 548 39,000  Level Minneapolis Center
Thu 10:50:10 PM 46.4264 -91.0250 115° Southeast 479 551 39,000  Level Minneapolis Center
Thu 10:51:12 PM 46.3581 -90.8169 115° Southeast 479 551 39,000  Level Minneapolis Center
Thu 10:52:13 PM 46.3006 -90.6453 116° Southeast 476 548 39,000  Level Minneapolis Center
Thu 10:53:15 PM 46.2444 -90.4719 115° Southeast 476 548 39,000  Level Minneapolis Center
Thu 10:54:17 PM 46.1858 -90.3003 116° Southeast 477 549 39,000  Level Minneapolis Center
Thu 10:55:18 PM 46.1289 -90.1281 115° Southeast 478 550 39,000  Level Minneapolis Center
Thu 10:56:20 PM 46.0706 -89.9572 116° Southeast 477 549 39,000  Level Minneapolis Center
Thu 10:57:21 PM 46.0131 -89.7856 116° Southeast 480 552 39,000  Level Minneapolis Center
Thu 10:58:23 PM 45.9456 -89.5900 116° Southeast 482 555 39,000  Level Minneapolis Center
Thu 10:59:24 PM 45.8856 -89.4192 117° Southeast 481 554 39,000  Level Minneapolis Center
Thu 11:00:29 PM 45.8189 -89.2231 116° Southeast 482 555 39,000  Level Minneapolis Center
Thu 11:01:30 PM 45.7594 -89.0525 116° Southeast 479 551 39,000  Level Minneapolis Center
Thu 11:02:32 PM 45.6944 -88.8728 117° Southeast 480 552 39,000  Level Minneapolis Center
Thu 11:03:34 PM 45.6358 -88.7039 116° Southeast 478 550 39,000  Level Minneapolis Center
Thu 11:04:35 PM 45.5750 -88.5344 117° Southeast 479 551 39,000  Level Minneapolis Center
Thu 11:05:37 PM 45.5144 -88.3656 117° Southeast 479 551 39,000  Level Minneapolis Center
Thu 11:06:39 PM 45.4533 -88.1986 118° Southeast 480 552 39,000  Level Minneapolis Center
Thu 11:07:40 PM 45.3925 -88.0308 117° Southeast 479 551 39,000  Level Minneapolis Center
Thu 11:08:42 PM 45.3308 -87.8631 118° Southeast 479 551 39,000  Level Minneapolis Center
Thu 11:09:43 PM 45.2572 -87.6633 118° Southeast 477 549 39,000  Level Minneapolis Center
Thu 11:10:45 PM 45.1956 -87.4964 118° Southeast 479 551 39,000  Level Minneapolis Center
Thu 11:11:46 PM 45.1333 -87.3300 118° Southeast 478 550 39,000  Level Minneapolis Center
Thu 11:12:48 PM 45.0708 -87.1644 118° Southeast 478 550 39,000  Level Minneapolis Center
Thu 11:14:02 PM 44.9953 -86.9658 118° Southeast 480 552 39,000  Level Minneapolis Center
Thu 11:15:03 PM 44.9319 -86.7997 118° Southeast 481 554 39,000  Level Minneapolis Center
Thu 11:16:05 PM 44.8711 -86.6392 118° Southeast 485 558 39,000  Level Minneapolis Center
Thu 11:17:06 PM 44.7953 -86.4406 118° Southeast 483 556 39,000  Level Minneapolis Center
Thu 11:18:07 PM 44.7303 -86.2764 119° Southeast 480 552 39,000  Level Minneapolis Center
Thu 11:19:09 PM 44.6669 -86.1122 118° Southeast 480 552 39,000  Level Minneapolis Center
Thu 11:20:10 PM 44.6044 -85.9547 119° Southeast 478 550 39,000  Level Minneapolis Center
Thu 11:21:24 PM 44.5414 -85.7936 119° Southeast 478 550 39,000  Level Minneapolis Center
Thu 11:22:26 PM 44.4642 -85.5986 119° Southeast 478 550 39,000  Level Minneapolis Center
Thu 11:23:27 PM 44.3878 -85.4058 119° Southeast 476 548 39,000  Level Minneapolis Center
Thu 11:24:28 PM 44.3225 -85.2458 120° Southeast 477 549 39,000  Level Minneapolis Center
Thu 11:25:30 PM 44.2575 -85.0844 119° Southeast 477 549 39,000  Level Minneapolis Center
Thu 11:26:31 PM 44.1922 -84.9242 120° Southeast 478 550 39,000  Level Minneapolis Center
Thu 11:27:32 PM 44.1258 -84.7622 120° Southeast 481 554 39,000  Level Minneapolis Center
Thu 11:28:34 PM 44.0592 -84.5994 120° Southeast 484 557 39,000  Level Minneapolis Center
Thu 11:29:35 PM 43.9933 -84.4372 119° Southeast 483 556 39,000  Level Minneapolis Center
Thu 11:30:37 PM 43.9194 -84.2622 120° Southeast 486 559 39,000  Level Minneapolis Center
Thu 11:31:38 PM 43.8522 -84.1000 120° Southeast 485 558 39,000  Level Minneapolis Center
Thu 11:32:39 PM 43.7847 -83.9383 120° Southeast 485 558 39,000  Level Minneapolis Center
Thu 11:33:41 PM 43.7169 -83.7769 120° Southeast 486 559 39,000  Level Minneapolis Center
Thu 11:34:42 PM 43.6472 -83.6158 121° Southeast 488 562 39,000  Level Minneapolis Center
Thu 11:35:09 PM 43.6025 -83.5186 122° Southeast 484 557 39,000  Level Cleveland Center
Thu 11:36:10 PM 43.5336 -83.3522 120° Southeast 484 557 39,000  Level Cleveland Center
Thu 11:37:09 PM 43.4664 -83.2003 121° Southeast 489 563 39,000 -403 Level Cleveland Center
Thu 11:38:09 PM 43.3947 -83.0403 122° Southeast 484 557 38,200 -857 Descending Cleveland Center
Thu 11:38:40 PM 43.3500 -82.9500 124° Southeast 480 552 37,700 -1,000 Descending Toronto Center
Thu 11:39:09 PM 43.3272 -82.8806 114° Southeast 484 557 37,200 -1,685 Descending Cleveland Center
Thu 11:40:09 PM 43.2636 -82.7269 120° Southeast 484 557 35,200 -2,100 Descending Cleveland Center
Thu 11:41:09 PM 43.2314 -82.5464 104° East 476 548 33,000 -2,308 Descending Cleveland Center
Thu 11:41:40 PM 43.2167 -82.4500 102° East 480 552 31,700 -2,176 Descending Toronto Center
Thu 11:42:40 PM 43.1833 -82.2667 104° East 470 541 29,700 -2,100 Descending Toronto Center
Thu 11:43:40 PM 43.1500 -82.1000 105° East 460 529 27,500 -2,050 Descending Toronto Center
Thu 11:44:40 PM 43.1333 -81.9333 98° East 450 518 25,600 -1,900 Descending Toronto Center
Thu 11:45:40 PM 43.1167 -81.7833 99° East 430 495 23,700 -1,950 Descending Toronto Center
Thu 11:46:40 PM 43.1000 -81.6167 98° East 410 472 21,700 -1,850 Descending Toronto Center
Thu 11:47:40 PM 43.0667 -81.4667 107° East 400 460 20,000 -1,700 Descending Toronto Center
Thu 11:48:40 PM 43.0500 -81.3500 101° East 380 437 18,300 -1,750 Descending Toronto Center
Thu 11:49:40 PM 43.0333 -81.1833 98° East 370 426 16,500 -1,700 Descending Toronto Center
Thu 11:50:40 PM 43.0333 -81.0667 90° East 350 403 14,900 -1,800 Descending Toronto Center
Thu 11:51:40 PM 43.0500 -80.9333 80° East 350 403 12,900 -2,200 Descending Toronto Center
Thu 11:52:40 PM 43.0833 -80.8000 71° East 350 403 10,500 -1,600 Descending Toronto Center
Thu 11:53:40 PM 43.1167 -80.6833 69° East 340 391 9,700 -900 Descending Toronto Center
Thu 11:54:40 PM 43.1333 -80.5667 79° East 300 345 8,700 -1,150 Descending Toronto Center
Thu 11:55:40 PM 43.1500 -80.4833 75° East 290 334 7,400 -1,350 Descending Toronto Center
Thu 11:56:40 PM 43.1667 -80.3667 79° East 280 322 6,000 -1,100 Descending Toronto Center
Thu 11:57:40 PM 43.1833 -80.2667 77° East 270 311 5,200 -800 Descending Toronto Center
Thu 11:58:40 PM 43.2000 -80.1833 75° East 240 276 4,400 -1,000 Descending Toronto Center
Thu 11:59:40 PM 43.2167 -80.0833 77° East 220 253 3,200 -1,100 Descending Toronto Center
Fri 12:00:40 AM 43.2000 -80.0167 109° East 190 219 2,200 -900 Descending Toronto Center
Fri 12:01:40 AM 43.1833 -79.9833 124° Southeast 160 184 1,400 -750 Descending Toronto Center
Fri 12:02:40 AM 43.1667 -79.9333 115° Southeast 150 173 700 -700 Descending Toronto Center

Login

Don't have an account? Register now (free) for customized features, flight alerts, and more!